createdAt,value
2019-02-26T00:00:16.672Z,79.54
2019-02-26T00:01:18.539Z,79.54
2019-02-26T00:02:17.404Z,79.35
2019-02-26T00:03:19.387Z,79.92
2019-02-26T00:04:14.938Z,79.83
2019-02-26T00:05:17.322Z,79.25
2019-02-26T00:06:16.112Z,79.25
2019-02-26T00:07:18.257Z,79.35
2019-02-26T00:08:19.428Z,79.73
2019-02-26T00:09:18.114Z,79.16
2019-02-26T00:10:14.803Z,78.97
2019-02-26T00:11:14.779Z,78.88
2019-02-26T00:12:14.758Z,78.50
2019-02-26T00:13:14.736Z,78.50
2019-02-26T00:14:17.524Z,79.06
2019-02-26T00:15:14.690Z,79.54
2019-02-26T00:16:15.791Z,79.73
2019-02-26T00:17:15.270Z,79.63
2019-02-26T00:18:16.783Z,79.73
2019-02-26T00:19:14.604Z,79.63
2019-02-26T00:20:17.027Z,79.54
2019-02-26T00:21:14.558Z,79.16
2019-02-26T00:22:15.971Z,78.97
2019-02-26T00:23:14.505Z,78.11
2019-02-26T00:24:15.081Z,78.40
2019-02-26T00:25:15.297Z,78.78
2019-02-26T00:26:15.598Z,78.02
2019-02-26T00:27:14.425Z,77.83
2019-02-26T00:28:15.880Z,77.64
2019-02-26T00:29:14.374Z,78.21
2019-02-26T00:30:16.213Z,78.21
2019-02-26T00:31:14.350Z,78.50
2019-02-26T00:32:15.985Z,77.73
2019-02-26T00:33:14.287Z,78.50
2019-02-26T00:34:16.881Z,78.50
2019-02-26T00:35:15.850Z,78.30
2019-02-26T00:36:15.435Z,78.30
2019-02-26T00:37:14.198Z,78.30
2019-02-26T00:38:16.012Z,79.06
2019-02-26T00:39:14.156Z,78.88
2019-02-26T00:40:14.628Z,79.06
2019-02-26T00:41:14.107Z,79.44
2019-02-26T00:42:14.085Z,79.16
2019-02-26T00:43:14.069Z,78.88
2019-02-26T00:44:14.041Z,79.35
2019-02-26T00:45:14.024Z,79.35
2019-02-26T00:46:13.995Z,79.35
2019-02-26T00:47:13.974Z,78.88
2019-02-26T00:48:13.958Z,78.59
2019-02-26T00:49:13.925Z,77.64
2019-02-26T00:50:14.737Z,77.36
2019-02-26T00:51:13.890Z,76.97
2019-02-26T00:52:15.622Z,76.73
2019-02-26T00:53:17.146Z,76.16
2019-02-26T00:54:13.816Z,75.78
2019-02-26T00:55:13.807Z,75.49
2019-02-26T00:56:13.766Z,75.53
2019-02-26T00:57:13.972Z,75.62
2019-02-26T00:58:13.727Z,75.53
2019-02-26T00:59:13.730Z,75.68
2019-02-26T01:00:13.687Z,75.72
2019-02-26T01:01:15.266Z,75.81
2019-02-26T01:02:13.646Z,76.29
2019-02-26T01:03:15.266Z,75.96
2019-02-26T01:04:13.594Z,76.06
2019-02-26T01:05:15.499Z,76.44
2019-02-26T01:06:13.548Z,76.16
2019-02-26T01:07:13.528Z,76.82
2019-02-26T01:08:15.296Z,77.20
2019-02-26T01:09:13.483Z,77.30
2019-02-26T01:10:14.346Z,77.01
2019-02-26T01:11:13.439Z,77.01
2019-02-26T01:12:14.466Z,77.49
2019-02-26T01:13:13.392Z,78.06
2019-02-26T01:14:14.056Z,77.68
2019-02-26T01:15:14.046Z,78.02
2019-02-26T01:16:13.343Z,78.02
2019-02-26T01:17:14.846Z,77.97
2019-02-26T01:18:13.281Z,78.02
2019-02-26T01:19:15.204Z,78.11
2019-02-26T01:20:13.238Z,78.69
2019-02-26T01:21:13.218Z,79.63
2019-02-26T01:22:13.193Z,79.35
2019-02-26T01:23:13.170Z,80.21
2019-02-26T01:24:13.155Z,80.02
2019-02-26T01:25:15.230Z,79.54
2019-02-26T01:26:13.106Z,80.21
2019-02-26T01:27:13.083Z,79.83
2019-02-26T01:28:16.049Z,80.55
2019-02-26T01:29:16.057Z,80.74
2019-02-26T01:30:13.017Z,80.45
2019-02-26T01:31:12.996Z,81.02
2019-02-26T01:32:15.162Z,81.30
2019-02-26T01:33:12.948Z,81.49
2019-02-26T01:34:14.053Z,81.30
2019-02-26T01:35:13.019Z,81.30
2019-02-26T01:36:13.970Z,82.26
2019-02-26T01:37:12.857Z,81.87
2019-02-26T01:38:14.395Z,81.78
2019-02-26T01:39:13.878Z,82.35
2019-02-26T01:40:15.530Z,83.11
2019-02-26T01:41:13.883Z,83.87
2019-02-26T01:42:13.380Z,84.06
2019-02-26T01:43:12.731Z,84.30
2019-02-26T01:44:12.701Z,85.01
2019-02-26T01:45:12.680Z,84.72
2019-02-26T01:46:14.645Z,85.20
2019-02-26T01:47:12.636Z,85.20
2019-02-26T01:48:16.080Z,85.39
2019-02-26T01:49:12.587Z,84.91
2019-02-26T01:50:13.501Z,84.87
2019-02-26T01:51:12.544Z,84.87
2019-02-26T01:52:13.352Z,84.21
2019-02-26T01:53:14.423Z,84.49
2019-02-26T01:54:14.427Z,84.49
2019-02-26T01:55:12.452Z,84.49
2019-02-26T01:56:12.437Z,84.59
2019-02-26T01:57:12.409Z,84.78
2019-02-26T01:58:15.790Z,85.72
2019-02-26T01:59:12.381Z,86.20
2019-02-26T02:00:12.341Z,86.39
2019-02-26T02:01:14.294Z,86.58
2019-02-26T02:02:14.832Z,86.39
2019-02-26T02:03:12.274Z,86.58
2019-02-26T02:04:12.813Z,86.39
2019-02-26T02:05:12.226Z,86.11
2019-02-26T02:06:13.706Z,86.30
2019-02-26T02:07:12.175Z,86.39
2019-02-26T02:08:13.278Z,86.11
2019-02-26T02:09:13.579Z,86.87
2019-02-26T02:10:12.107Z,87.62
2019-02-26T02:11:12.089Z,87.72
2019-02-26T02:12:12.068Z,87.53
2019-02-26T02:13:12.049Z,88.10
2019-02-26T02:14:12.742Z,88.48
2019-02-26T02:15:12.383Z,87.91
2019-02-26T02:16:11.969Z,87.62
2019-02-26T02:17:13.597Z,88.01
2019-02-26T02:18:11.927Z,87.72
2019-02-26T02:19:15.504Z,88.39
2019-02-26T02:20:13.093Z,88.20
2019-02-26T02:21:11.852Z,88.29
2019-02-26T02:22:12.176Z,88.95
2019-02-26T02:23:11.808Z,89.24
2019-02-26T02:24:13.275Z,88.86
2019-02-26T02:25:11.766Z,88.95
2019-02-26T02:26:13.892Z,89.24
2019-02-26T02:27:12.649Z,88.95
2019-02-26T02:28:11.693Z,88.76
2019-02-26T02:29:12.855Z,88.39
2019-02-26T02:30:18.519Z,88.29
2019-02-26T02:31:11.622Z,87.91
2019-02-26T02:32:11.601Z,88.39
2019-02-26T02:33:11.587Z,88.20
2019-02-26T02:34:11.552Z,89.05
2019-02-26T02:35:12.622Z,88.76
2019-02-26T02:36:11.744Z,88.57
2019-02-26T02:37:11.487Z,89.05
2019-02-26T02:38:11.457Z,89.24
2019-02-26T02:39:15.471Z,88.20
2019-02-26T02:40:11.417Z,88.48
2019-02-26T02:41:11.394Z,88.57
2019-02-26T02:42:13.306Z,88.48
2019-02-26T02:43:13.192Z,88.57
2019-02-26T02:44:14.505Z,88.95
2019-02-26T02:45:13.535Z,89.05
2019-02-26T02:46:11.270Z,89.05
2019-02-26T02:47:11.345Z,88.67
2019-02-26T02:48:11.775Z,89.33
2019-02-26T02:49:13.259Z,89.20
2019-02-26T02:50:12.648Z,89.95
2019-02-26T02:51:13.730Z,89.95
2019-02-26T02:52:11.898Z,89.95
2019-02-26T02:53:11.110Z,89.86
2019-02-26T02:54:12.121Z,90.05
2019-02-26T02:55:15.625Z,89.95
2019-02-26T02:56:12.921Z,89.76
2019-02-26T02:57:11.017Z,90.24
2019-02-26T02:58:13.090Z,90.24
2019-02-26T02:59:11.273Z,90.62
2019-02-26T03:00:10.948Z,90.90
2019-02-26T03:01:13.690Z,90.71
2019-02-26T03:02:12.676Z,90.90
2019-02-26T03:03:10.881Z,91.56
2019-02-26T03:04:14.713Z,91.75
2019-02-26T03:05:10.828Z,91.28
2019-02-26T03:06:12.363Z,91.38
2019-02-26T03:07:10.785Z,91.38
2019-02-26T03:08:13.307Z,91.85
2019-02-26T03:09:11.822Z,91.94
2019-02-26T03:10:12.030Z,91.66
2019-02-26T03:11:10.691Z,91.75
2019-02-26T03:12:10.667Z,92.14
2019-02-26T03:13:10.637Z,92.61
2019-02-26T03:14:10.938Z,92.52
2019-02-26T03:15:10.602Z,92.90
2019-02-26T03:16:10.571Z,92.42
2019-02-26T03:17:11.080Z,92.14
2019-02-26T03:18:12.505Z,92.90
2019-02-26T03:19:12.157Z,92.99
2019-02-26T03:20:10.481Z,93.37
2019-02-26T03:21:10.448Z,93.37
2019-02-26T03:22:12.691Z,93.65
2019-02-26T03:23:15.100Z,92.99
2019-02-26T03:24:10.549Z,92.52
2019-02-26T03:25:10.357Z,92.99
2019-02-26T03:26:14.696Z,93.08
2019-02-26T03:27:10.323Z,92.99
2019-02-26T03:28:10.292Z,91.66
2019-02-26T03:29:10.272Z,91.85
2019-02-26T03:30:10.244Z,91.47
2019-02-26T03:31:10.223Z,91.33
2019-02-26T03:32:10.201Z,91.04
2019-02-26T03:33:10.177Z,91.33
2019-02-26T03:34:14.722Z,91.33
2019-02-26T03:35:10.749Z,90.95
2019-02-26T03:36:11.197Z,90.57
2019-02-26T03:37:11.077Z,90.57
2019-02-26T03:38:10.060Z,90.19
2019-02-26T03:39:10.033Z,90.38
2019-02-26T03:40:10.010Z,90.00
2019-02-26T03:41:09.979Z,90.38
2019-02-26T03:42:10.662Z,90.38
2019-02-26T03:43:12.383Z,90.66
2019-02-26T03:44:09.922Z,90.28
2019-02-26T03:45:09.895Z,90.47
2019-02-26T03:46:09.874Z,90.85
2019-02-26T03:47:09.846Z,91.09
2019-02-26T03:48:09.817Z,91.52
2019-02-26T03:49:09.799Z,91.71
2019-02-26T03:50:09.770Z,91.61
2019-02-26T03:51:09.745Z,91.33
2019-02-26T03:52:09.727Z,91.24
2019-02-26T03:53:10.115Z,91.09
2019-02-26T03:54:09.682Z,90.28
2019-02-26T03:55:12.115Z,90.57
2019-02-26T03:56:14.327Z,90.66
2019-02-26T03:57:11.360Z,90.19
2019-02-26T03:58:09.597Z,90.38
2019-02-26T03:59:11.760Z,89.72
2019-02-26T04:00:11.360Z,89.24
2019-02-26T04:01:10.955Z,89.47
2019-02-26T04:02:11.750Z,88.43
2019-02-26T04:03:11.913Z,88.57
2019-02-26T04:04:09.447Z,88.57
2019-02-26T04:05:09.420Z,88.15
2019-02-26T04:06:11.739Z,88.29
2019-02-26T04:07:10.616Z,88.15
2019-02-26T04:08:09.351Z,87.86
2019-02-26T04:09:11.085Z,87.95
2019-02-26T04:10:09.299Z,88.01
2019-02-26T04:11:09.285Z,88.20
2019-02-26T04:12:11.273Z,88.29
2019-02-26T04:13:09.232Z,88.86
2019-02-26T04:14:12.142Z,88.67
2019-02-26T04:15:09.186Z,88.76
2019-02-26T04:16:09.293Z,89.33
2019-02-26T04:17:09.204Z,89.53
2019-02-26T04:18:09.116Z,89.43
2019-02-26T04:19:09.502Z,89.72
2019-02-26T04:20:09.069Z,89.43
2019-02-26T04:21:11.765Z,89.53
2019-02-26T04:22:12.438Z,89.24
2019-02-26T04:23:10.970Z,89.33
2019-02-26T04:24:10.995Z,89.53
2019-02-26T04:25:09.398Z,89.53
2019-02-26T04:26:08.928Z,89.62
2019-02-26T04:27:08.915Z,89.33
2019-02-26T04:28:10.934Z,89.24
2019-02-26T04:29:08.865Z,89.43
2019-02-26T04:30:10.579Z,89.33
2019-02-26T04:31:08.811Z,89.62
2019-02-26T04:32:09.528Z,89.24
2019-02-26T04:33:09.195Z,89.24
2019-02-26T04:34:08.767Z,89.72
2019-02-26T04:35:08.723Z,89.81
2019-02-26T04:36:09.769Z,90.28
2019-02-26T04:37:10.431Z,89.81
2019-02-26T04:38:08.643Z,90.38
2019-02-26T04:39:10.806Z,90.28
2019-02-26T04:40:11.042Z,90.38
2019-02-26T04:41:10.195Z,90.57
2019-02-26T04:42:10.975Z,90.57
2019-02-26T04:43:10.123Z,91.00
2019-02-26T04:44:08.514Z,91.09
2019-02-26T04:45:09.246Z,91.33
2019-02-26T04:46:10.694Z,91.38
2019-02-26T04:47:08.441Z,90.71
2019-02-26T04:48:08.422Z,91.00
2019-02-26T04:49:08.393Z,91.19
2019-02-26T04:50:09.178Z,91.47
2019-02-26T04:51:08.345Z,92.04
2019-02-26T04:52:10.924Z,91.66
2019-02-26T04:53:10.859Z,91.75
2019-02-26T04:54:08.278Z,91.85
2019-02-26T04:55:08.255Z,92.71
2019-02-26T04:56:12.747Z,92.52
2019-02-26T04:57:08.206Z,92.80
2019-02-26T04:58:08.763Z,93.46
2019-02-26T04:59:09.787Z,92.99
2019-02-26T05:00:10.547Z,93.56
2019-02-26T05:01:10.256Z,94.13
2019-02-26T05:02:08.090Z,93.94
2019-02-26T05:03:11.068Z,93.94
2019-02-26T05:04:08.048Z,93.84
2019-02-26T05:05:08.029Z,94.70
2019-02-26T05:06:10.644Z,94.32
2019-02-26T05:07:10.386Z,94.23
2019-02-26T05:08:10.373Z,94.32
2019-02-26T05:09:08.492Z,93.94
2019-02-26T05:10:07.926Z,93.94
2019-02-26T05:11:07.877Z,94.03
2019-02-26T05:12:07.855Z,93.84
2019-02-26T05:13:09.718Z,93.84
2019-02-26T05:14:09.126Z,93.89
2019-02-26T05:15:11.488Z,93.75
2019-02-26T05:16:07.756Z,93.84
2019-02-26T05:17:07.734Z,94.03
2019-02-26T05:18:07.721Z,94.51
2019-02-26T05:19:07.691Z,94.23
2019-02-26T05:20:10.607Z,94.32
2019-02-26T05:21:10.187Z,94.42
2019-02-26T05:22:07.619Z,94.51
2019-02-26T05:23:07.598Z,94.32
2019-02-26T05:24:07.578Z,94.37
2019-02-26T05:25:10.974Z,94.27
2019-02-26T05:26:08.376Z,94.03
2019-02-26T05:27:09.469Z,94.13
2019-02-26T05:28:11.492Z,93.80
2019-02-26T05:29:07.460Z,94.46
2019-02-26T05:30:09.425Z,94.37
2019-02-26T05:31:09.070Z,94.08
2019-02-26T05:32:09.313Z,94.27
2019-02-26T05:33:07.356Z,93.99
2019-02-26T05:34:07.337Z,94.27
2019-02-26T05:35:07.312Z,93.89
2019-02-26T05:36:09.445Z,94.08
2019-02-26T05:37:08.113Z,93.60
2019-02-26T05:38:09.507Z,93.32
2019-02-26T05:39:07.220Z,93.23
2019-02-26T05:40:10.503Z,93.13
2019-02-26T05:41:07.168Z,93.32
2019-02-26T05:42:07.149Z,92.75
2019-02-26T05:43:07.131Z,92.66
2019-02-26T05:44:10.380Z,92.85
2019-02-26T05:45:09.362Z,93.04
2019-02-26T05:46:07.066Z,92.94
2019-02-26T05:47:07.032Z,93.23
2019-02-26T05:48:07.003Z,93.04
2019-02-26T05:49:12.490Z,93.04
2019-02-26T05:50:09.509Z,93.23
2019-02-26T05:51:10.858Z,93.32
2019-02-26T05:52:07.087Z,93.13
2019-02-26T05:53:07.749Z,93.99
2019-02-26T05:54:08.219Z,93.23
2019-02-26T05:55:06.846Z,93.60
2019-02-26T05:56:08.893Z,93.51
2019-02-26T05:57:09.480Z,93.32
2019-02-26T05:58:07.563Z,93.89
2019-02-26T05:59:07.446Z,93.60
2019-02-26T06:00:08.431Z,93.23
2019-02-26T06:01:06.700Z,94.18
2019-02-26T06:02:06.683Z,94.18
2019-02-26T06:03:09.650Z,94.37
2019-02-26T06:04:07.762Z,93.99
2019-02-26T06:05:06.610Z,94.18
2019-02-26T06:06:06.591Z,94.18
2019-02-26T06:07:06.565Z,94.18
2019-02-26T06:08:06.532Z,94.27
2019-02-26T06:09:07.688Z,94.08
2019-02-26T06:10:06.495Z,93.99
2019-02-26T06:11:06.469Z,94.27
2019-02-26T06:12:06.447Z,94.08
2019-02-26T06:13:07.633Z,94.74
2019-02-26T06:14:09.167Z,94.56
2019-02-26T06:15:08.008Z,94.08
2019-02-26T06:16:07.565Z,94.65
2019-02-26T06:17:07.280Z,94.74
2019-02-26T06:18:06.310Z,95.22
2019-02-26T06:19:08.321Z,94.74
2019-02-26T06:20:08.061Z,94.46
2019-02-26T06:21:06.244Z,94.84
2019-02-26T06:22:06.215Z,94.74
2019-02-26T06:23:06.195Z,95.03
2019-02-26T06:24:06.165Z,95.03
2019-02-26T06:25:09.563Z,94.56
2019-02-26T06:26:13.291Z,94.74
2019-02-26T06:27:08.593Z,94.27
2019-02-26T06:28:07.703Z,94.84
2019-02-26T06:29:06.048Z,94.74
2019-02-26T06:30:09.168Z,94.84
2019-02-26T06:31:06.005Z,94.84
2019-02-26T06:32:07.754Z,95.03
2019-02-26T06:33:07.106Z,94.46
2019-02-26T06:34:08.625Z,95.31
2019-02-26T06:35:08.113Z,95.51
2019-02-26T06:36:06.482Z,95.31
2019-02-26T06:37:07.168Z,95.12
2019-02-26T06:38:08.641Z,95.31
2019-02-26T06:39:06.045Z,95.41
2019-02-26T06:40:07.458Z,95.41
2019-02-26T06:41:05.772Z,95.60
2019-02-26T06:42:07.144Z,95.51
2019-02-26T06:43:05.723Z,95.79
2019-02-26T06:44:05.714Z,95.60
2019-02-26T06:45:06.529Z,95.89
2019-02-26T06:46:09.186Z,95.89
2019-02-26T06:47:06.899Z,95.41
2019-02-26T06:48:05.608Z,95.31
2019-02-26T06:49:05.584Z,95.60
2019-02-26T06:50:07.505Z,95.31
2019-02-26T06:51:07.197Z,95.51
2019-02-26T06:52:06.068Z,95.31
2019-02-26T06:53:08.404Z,95.51
2019-02-26T06:54:05.469Z,95.22
2019-02-26T06:55:07.668Z,95.22
2019-02-26T06:56:05.422Z,95.22
2019-02-26T06:57:05.397Z,95.51
2019-02-26T06:58:05.403Z,94.93
2019-02-26T06:59:07.020Z,95.31
2019-02-26T07:00:05.330Z,95.22
2019-02-26T07:01:07.156Z,95.03
2019-02-26T07:02:05.286Z,95.22
2019-02-26T07:03:05.256Z,95.12
2019-02-26T07:04:05.242Z,94.46
2019-02-26T07:05:05.222Z,95.12
2019-02-26T07:06:05.191Z,95.27
2019-02-26T07:07:06.874Z,95.22
2019-02-26T07:08:06.611Z,95.31
2019-02-26T07:09:05.121Z,95.17
2019-02-26T07:10:05.101Z,95.17
2019-02-26T07:11:07.216Z,95.55
2019-02-26T07:12:05.057Z,95.36
2019-02-26T07:13:06.960Z,95.17
2019-02-26T07:14:05.551Z,95.08
2019-02-26T07:15:04.990Z,95.46
2019-02-26T07:16:05.290Z,95.36
2019-02-26T07:17:04.939Z,95.46
2019-02-26T07:18:07.299Z,95.65
2019-02-26T07:19:06.555Z,95.46
2019-02-26T07:20:04.873Z,95.46
2019-02-26T07:21:06.717Z,95.65
2019-02-26T07:22:05.505Z,95.65
2019-02-26T07:23:05.880Z,95.46
2019-02-26T07:24:04.786Z,95.84
2019-02-26T07:25:06.437Z,95.84
2019-02-26T07:26:04.736Z,95.65
2019-02-26T07:27:06.588Z,95.65
2019-02-26T07:28:04.693Z,96.03
2019-02-26T07:29:05.844Z,95.27
2019-02-26T07:30:04.645Z,95.46
2019-02-26T07:31:05.467Z,95.27
2019-02-26T07:32:04.600Z,95.17
2019-02-26T07:33:05.335Z,95.65
2019-02-26T07:34:04.563Z,96.22
2019-02-26T07:35:06.369Z,96.98
2019-02-26T07:36:04.521Z,96.60
2019-02-26T07:37:06.371Z,96.60
2019-02-26T07:38:04.473Z,96.65
2019-02-26T07:39:05.123Z,96.60
2019-02-26T07:40:05.766Z,96.41
2019-02-26T07:41:06.144Z,96.65
2019-02-26T07:42:04.373Z,96.55
2019-02-26T07:43:07.010Z,96.84
2019-02-26T07:44:04.347Z,96.55
2019-02-26T07:45:04.323Z,96.45
2019-02-26T07:46:04.300Z,96.45
2019-02-26T07:47:06.125Z,96.17
2019-02-26T07:48:04.254Z,96.17
2019-02-26T07:49:04.872Z,96.08
2019-02-26T07:50:06.643Z,95.70
2019-02-26T07:51:04.175Z,95.98
2019-02-26T07:52:06.708Z,95.89
2019-02-26T07:53:04.139Z,96.74
2019-02-26T07:54:04.122Z,96.74
2019-02-26T07:55:05.992Z,96.65
2019-02-26T07:56:06.214Z,96.03
2019-02-26T07:57:04.062Z,95.56
2019-02-26T07:58:06.067Z,95.36
2019-02-26T07:59:07.104Z,94.79
2019-02-26T08:00:03.994Z,94.51
2019-02-26T08:01:03.966Z,94.13
2019-02-26T08:02:06.247Z,94.13
2019-02-26T08:03:04.675Z,94.51
2019-02-26T08:04:03.890Z,94.32
2019-02-26T08:05:03.867Z,94.42
2019-02-26T08:06:06.544Z,93.37
2019-02-26T08:07:03.853Z,92.89
2019-02-26T08:08:03.810Z,92.36
2019-02-26T08:09:04.856Z,92.27
2019-02-26T08:10:03.764Z,91.42
2019-02-26T08:11:03.749Z,91.13
2019-02-26T08:12:04.360Z,90.56
2019-02-26T08:13:05.672Z,89.80
2019-02-26T08:14:03.678Z,90.47
2019-02-26T08:15:05.692Z,90.56
2019-02-26T08:16:05.132Z,90.22
2019-02-26T08:17:04.489Z,89.37
2019-02-26T08:18:05.317Z,89.18
2019-02-26T08:19:03.571Z,89.75
2019-02-26T08:20:05.036Z,89.08
2019-02-26T08:21:05.083Z,88.51
2019-02-26T08:22:03.509Z,87.37
2019-02-26T08:23:03.485Z,86.80
2019-02-26T08:24:03.467Z,85.85
2019-02-26T08:25:03.449Z,86.04
2019-02-26T08:26:03.458Z,85.80
2019-02-26T08:27:05.466Z,85.89
2019-02-26T08:28:03.382Z,86.36
2019-02-26T08:29:05.017Z,86.08
2019-02-26T08:30:03.338Z,85.32
2019-02-26T08:31:05.321Z,84.84
2019-02-26T08:32:03.309Z,84.56
2019-02-26T08:33:06.765Z,85.13
2019-02-26T08:34:03.253Z,84.88
2019-02-26T08:35:03.227Z,83.93
2019-02-26T08:36:03.215Z,82.98
2019-02-26T08:37:03.195Z,82.60
2019-02-26T08:38:05.627Z,81.84
2019-02-26T08:39:03.152Z,81.02
2019-02-26T08:40:03.121Z,81.40
2019-02-26T08:41:03.113Z,81.59
2019-02-26T08:42:03.091Z,81.30
2019-02-26T08:43:03.067Z,79.68
2019-02-26T08:44:03.047Z,79.88
2019-02-26T08:45:03.027Z,79.78
2019-02-26T08:46:03.010Z,79.59
2019-02-26T08:47:06.001Z,79.02
2019-02-26T08:48:02.966Z,78.35
2019-02-26T08:49:08.253Z,77.69
2019-02-26T08:50:04.717Z,77.49
2019-02-26T08:51:05.372Z,76.96
2019-02-26T08:52:02.883Z,76.96
2019-02-26T08:53:02.865Z,76.29
2019-02-26T08:54:02.846Z,75.05
2019-02-26T08:55:02.819Z,74.77
2019-02-26T08:56:04.085Z,74.29
2019-02-26T08:57:02.779Z,73.43
2019-02-26T08:58:02.754Z,73.75
2019-02-26T08:59:03.626Z,72.99
2019-02-26T09:00:02.728Z,72.71
2019-02-26T09:01:02.714Z,71.66
2019-02-26T09:02:02.687Z,70.70
2019-02-26T09:03:02.665Z,70.03
2019-02-26T09:04:02.643Z,68.98
2019-02-26T09:05:04.447Z,68.03
2019-02-26T09:06:11.010Z,69.65
2019-02-26T09:07:02.597Z,70.13
2019-02-26T09:08:02.567Z,70.22
2019-02-26T09:09:04.578Z,70.83
2019-02-26T09:10:02.521Z,70.83
2019-02-26T09:11:03.465Z,71.02
2019-02-26T09:12:03.240Z,69.31
2019-02-26T09:13:02.461Z,68.26
2019-02-26T09:14:04.883Z,67.87
2019-02-26T09:15:02.426Z,67.87
2019-02-26T09:16:03.025Z,67.68
2019-02-26T09:17:04.488Z,67.58
2019-02-26T09:18:02.363Z,66.72
2019-02-26T09:19:02.352Z,66.15
2019-02-26T09:20:09.296Z,67.01
2019-02-26T09:21:02.332Z,65.77
2019-02-26T09:22:02.284Z,65.52
2019-02-26T09:23:02.263Z,66.19
2019-02-26T09:24:04.724Z,65.33
2019-02-26T09:25:02.795Z,66.19
2019-02-26T09:26:04.448Z,65.80
2019-02-26T09:27:04.330Z,66.00
2019-02-26T09:28:02.166Z,65.80
2019-02-26T09:29:02.254Z,65.23
2019-02-26T09:30:03.442Z,65.80
2019-02-26T09:31:04.685Z,66.00
2019-02-26T09:32:02.251Z,66.28
2019-02-26T09:33:03.411Z,65.90
2019-02-26T09:34:02.191Z,65.90
2019-02-26T09:35:04.740Z,65.90
2019-02-26T09:36:02.012Z,66.41
2019-02-26T09:37:05.006Z,66.28
2019-02-26T09:38:02.199Z,66.70
2019-02-26T09:39:03.294Z,66.31
2019-02-26T09:40:04.842Z,65.55
2019-02-26T09:41:02.041Z,66.22
2019-02-26T09:42:04.069Z,65.84
2019-02-26T09:43:02.353Z,65.45
2019-02-26T09:44:04.196Z,64.50
2019-02-26T09:45:01.845Z,64.62
2019-02-26T09:46:03.857Z,65.17
2019-02-26T09:47:03.156Z,64.62
2019-02-26T09:48:01.907Z,64.25
2019-02-26T09:49:04.967Z,64.15
2019-02-26T09:50:01.888Z,63.19
2019-02-26T09:51:01.715Z,63.76
2019-02-26T09:52:03.798Z,64.05
2019-02-26T09:53:01.692Z,64.05
2019-02-26T09:54:01.662Z,63.86
2019-02-26T09:55:01.653Z,63.39
2019-02-26T09:56:01.629Z,63.60
2019-02-26T09:57:01.604Z,63.13
2019-02-26T09:58:02.581Z,63.42
2019-02-26T09:59:02.380Z,63.32
2019-02-26T10:00:03.229Z,64.28
2019-02-26T10:01:01.529Z,64.09
2019-02-26T10:02:03.572Z,64.18
2019-02-26T10:03:03.029Z,63.89
2019-02-26T10:04:03.146Z,63.70
2019-02-26T10:05:01.461Z,63.70
2019-02-26T10:06:01.431Z,63.51
2019-02-26T10:07:02.333Z,64.28
2019-02-26T10:08:03.486Z,64.09
2019-02-26T10:09:01.376Z,64.28
2019-02-26T10:10:03.595Z,63.23
2019-02-26T10:11:02.738Z,63.32
2019-02-26T10:12:02.774Z,63.51
2019-02-26T10:13:02.908Z,63.23
2019-02-26T10:14:02.819Z,63.99
2019-02-26T10:15:02.374Z,63.73
2019-02-26T10:16:03.466Z,63.45
2019-02-26T10:17:01.224Z,63.54
2019-02-26T10:18:03.817Z,62.49
2019-02-26T10:19:01.178Z,62.87
2019-02-26T10:20:01.761Z,62.40
2019-02-26T10:21:01.167Z,62.87
2019-02-26T10:22:05.594Z,61.91
2019-02-26T10:23:03.426Z,61.34
2019-02-26T10:24:01.926Z,61.05
2019-02-26T10:25:01.066Z,61.82
2019-02-26T10:26:02.903Z,61.63
2019-02-26T10:27:03.244Z,60.58
2019-02-26T10:28:05.801Z,60.48
2019-02-26T10:29:04.397Z,59.72
2019-02-26T10:30:02.924Z,59.55
2019-02-26T10:31:04.419Z,59.62
2019-02-26T10:32:00.946Z,59.55
2019-02-26T10:33:02.801Z,59.65
2019-02-26T10:34:02.960Z,59.08
2019-02-26T10:35:00.889Z,58.98
2019-02-26T10:36:02.909Z,58.50
2019-02-26T10:37:00.862Z,57.83
2019-02-26T10:38:05.135Z,57.06
2019-02-26T10:39:02.825Z,56.59
2019-02-26T10:40:00.808Z,56.59
2019-02-26T10:41:01.828Z,56.01
2019-02-26T10:42:02.567Z,55.44
2019-02-26T10:43:00.736Z,54.70
2019-02-26T10:44:00.727Z,54.70
2019-02-26T10:45:00.696Z,55.08
2019-02-26T10:46:00.682Z,54.41
2019-02-26T10:47:02.713Z,54.79
2019-02-26T10:48:01.658Z,55.18
2019-02-26T10:49:00.623Z,54.89
2019-02-26T10:50:00.613Z,55.08
2019-02-26T10:51:00.664Z,55.75
2019-02-26T10:52:00.569Z,56.13
2019-02-26T10:53:07.235Z,55.94
2019-02-26T10:54:02.599Z,55.08
2019-02-26T10:55:00.509Z,54.41
2019-02-26T10:56:00.493Z,53.93
2019-02-26T10:57:03.555Z,54.50
2019-02-26T10:58:04.704Z,54.32
2019-02-26T10:59:03.531Z,54.89
2019-02-26T11:00:02.525Z,54.99
2019-02-26T11:01:02.471Z,55.18
2019-02-26T11:02:02.439Z,54.89
2019-02-26T11:03:00.373Z,54.79
2019-02-26T11:04:00.353Z,54.70
2019-02-26T11:05:00.410Z,52.97
2019-02-26T11:06:00.303Z,52.42
2019-02-26T11:07:02.400Z,52.33
2019-02-26T11:08:02.891Z,52.14
2019-02-26T11:09:01.793Z,52.23
2019-02-26T11:10:00.276Z,52.59
2019-02-26T11:11:00.221Z,53.00
2019-02-26T11:12:02.864Z,52.62
2019-02-26T11:13:00.180Z,53.09
2019-02-26T11:14:00.167Z,52.71
2019-02-26T11:15:01.684Z,52.91
2019-02-26T11:16:03.062Z,52.81
2019-02-26T11:17:00.107Z,52.71
2019-02-26T11:18:00.087Z,52.71
2019-02-26T11:19:01.859Z,53.00
2019-02-26T11:20:01.162Z,53.09
2019-02-26T11:21:00.035Z,53.00
2019-02-26T11:22:00.800Z,52.14
2019-02-26T11:23:00.006Z,52.14
2019-02-26T11:24:00.835Z,51.85
2019-02-26T11:25:01.066Z,51.56
2019-02-26T11:25:59.942Z,52.16
2019-02-26T11:26:59.943Z,51.87
2019-02-26T11:28:02.091Z,51.97
2019-02-26T11:28:59.887Z,51.30
2019-02-26T11:30:01.795Z,51.01
2019-02-26T11:30:59.852Z,50.63
2019-02-26T11:32:01.719Z,50.82
2019-02-26T11:33:04.790Z,50.43
2019-02-26T11:34:03.242Z,50.43
2019-02-26T11:35:01.831Z,51.30
2019-02-26T11:35:59.788Z,51.97
2019-02-26T11:37:01.267Z,50.82
2019-02-26T11:37:59.721Z,50.82
2019-02-26T11:39:01.831Z,50.82
2019-02-26T11:40:00.482Z,50.92
2019-02-26T11:40:59.668Z,50.92
2019-02-26T11:42:01.215Z,49.76
2019-02-26T11:43:04.452Z,50.05
2019-02-26T11:43:59.620Z,49.76
2019-02-26T11:44:59.594Z,50.15
2019-02-26T11:46:01.373Z,49.96
2019-02-26T11:46:59.556Z,50.34
2019-02-26T11:48:01.005Z,50.82
2019-02-26T11:48:59.522Z,50.43
2019-02-26T11:50:00.051Z,50.05
2019-02-26T11:51:01.082Z,49.57
2019-02-26T11:52:03.644Z,49.38
2019-02-26T11:52:59.454Z,48.90
2019-02-26T11:54:00.076Z,48.90
2019-02-26T11:55:02.792Z,49.10
2019-02-26T11:56:01.863Z,48.71
2019-02-26T11:56:59.380Z,48.90
2019-02-26T11:57:59.361Z,48.71
2019-02-26T11:58:59.343Z,49.48
2019-02-26T11:59:59.824Z,49.67
2019-02-26T12:00:59.305Z,49.31
2019-02-26T12:02:01.259Z,49.21
2019-02-26T12:02:59.270Z,49.67
2019-02-26T12:04:03.600Z,49.60
2019-02-26T12:05:00.053Z,49.19
2019-02-26T12:06:01.984Z,48.83
2019-02-26T12:07:01.849Z,49.02
2019-02-26T12:07:59.176Z,48.64
2019-02-26T12:08:59.164Z,48.93
2019-02-26T12:10:04.666Z,48.93
2019-02-26T12:11:03.512Z,48.83
2019-02-26T12:12:00.902Z,48.25
2019-02-26T12:13:02.012Z,47.97
2019-02-26T12:13:59.071Z,47.30
2019-02-26T12:15:01.077Z,47.30
2019-02-26T12:15:59.042Z,47.39
2019-02-26T12:16:59.019Z,47.39
2019-02-26T12:17:59.000Z,47.58
2019-02-26T12:19:01.252Z,47.58
2019-02-26T12:20:00.441Z,47.01
2019-02-26T12:21:00.122Z,46.84
2019-02-26T12:22:01.274Z,46.94
2019-02-26T12:22:58.910Z,46.84
2019-02-26T12:24:01.499Z,46.91
2019-02-26T12:25:01.807Z,47.13
2019-02-26T12:26:01.143Z,47.22
2019-02-26T12:26:58.845Z,46.94
2019-02-26T12:28:00.220Z,46.65
2019-02-26T12:28:59.662Z,46.65
2019-02-26T12:29:58.824Z,46.94
2019-02-26T12:31:01.277Z,46.94
2019-02-26T12:32:01.054Z,47.13
2019-02-26T12:32:58.732Z,45.88
2019-02-26T12:33:58.720Z,45.30
2019-02-26T12:34:58.699Z,45.98
2019-02-26T12:35:59.516Z,45.68
2019-02-26T12:37:02.064Z,45.50
2019-02-26T12:38:01.288Z,45.59
2019-02-26T12:38:59.949Z,45.88
2019-02-26T12:39:58.609Z,45.11
2019-02-26T12:40:58.604Z,44.73
2019-02-26T12:41:58.575Z,44.44
2019-02-26T12:42:58.559Z,43.87
2019-02-26T12:44:00.860Z,44.34
2019-02-26T12:45:01.849Z,44.84
2019-02-26T12:45:59.415Z,43.98
2019-02-26T12:47:00.361Z,43.21
2019-02-26T12:47:58.468Z,43.12
2019-02-26T12:48:58.455Z,43.21
2019-02-26T12:49:58.687Z,43.02
2019-02-26T12:51:01.308Z,43.12
2019-02-26T12:51:59.824Z,43.70